Time;durP1;ratioP1;P1;durP2;ratioP2;P2;SDS_P1;SDS_P2;PMS_P1;PMS_P2;Temp;Humidity;BMP_temperature;BMP_pressure;BME280_temperature;BME280_humidity;BME280_pressure;Samples;Min_cycle;Max_cycle;Signal;HPM_P1;HPM_P2
2022/04/22 00:01:27;;;;;;;34.83;22.37;;;;;;;;;;5059000;28;20488;-65
2022/04/22 00:03:53;;;;;;;38.13;23.37;;;;;;;;;;5059163;28;20795;-55
2022/04/22 00:06:20;;;;;;;41.60;23.23;;;;;;;;;;5059144;28;20502;-57
2022/04/22 00:08:48;;;;;;;36.80;23.00;;;;;;;;;;5058945;28;20500;-66
2022/04/22 00:11:30;;;;;;;38.20;22.33;;;;;;;;;;5058807;28;20779;-67
2022/04/22 00:13:59;;;;;;;43.23;24.03;;;;;;;;;;5058821;28;20411;-65
2022/04/22 00:16:27;;;;;;;41.00;25.07;;;;;;;;;;5057423;28;20512;-64
2022/04/22 00:18:53;;;;;;;37.93;23.13;;;;;;;;;;5059268;28;20814;-64
2022/04/22 00:21:19;;;;;;;39.27;24.50;;;;;;;;;;5058706;28;20550;-62
2022/04/22 00:23:45;;;;;;;44.67;25.10;;;;;;;;;;5058637;28;20415;-67
2022/04/22 00:26:11;;;;;;;42.07;24.40;;;;;;;;;;5058760;28;20400;-65
2022/04/22 00:28:37;;;;;;;42.80;24.53;;;;;;;;;;5058660;28;20816;-61
2022/04/22 00:31:06;;;;;;;36.83;21.90;;;;;;;;;;5057610;28;20468;-62
2022/04/22 00:33:32;;;;;;;35.37;23.00;;;;;;;;;;5058659;28;20407;-64
2022/04/22 00:35:58;;;;;;;40.37;22.97;;;;;;;;;;5057304;28;20513;-64
2022/04/22 00:38:24;;;;;;;39.20;23.40;;;;;;;;;;5058537;28;20443;-61
2022/04/22 00:40:52;;;;;;;35.10;21.43;;;;;;;;;;5058619;28;20435;-63
2022/04/22 00:43:19;;;;;;;37.40;23.07;;;;;;;;;;5058582;28;20408;-66
2022/04/22 00:45:46;;;;;;;38.00;23.33;;;;;;;;;;5058437;28;20446;-65
2022/04/22 00:48:12;;;;;;;40.67;23.47;;;;;;;;;;5058502;28;20399;-63
2022/04/22 00:50:38;;;;;;;39.47;23.43;;;;;;;;;;5058424;28;20412;-62
2022/04/22 00:53:05;;;;;;;39.93;23.97;;;;;;;;;;5058316;28;20494;-64
2022/04/22 00:55:32;;;;;;;37.50;22.47;;;;;;;;;;5054225;28;20410;-64
2022/04/22 00:57:59;;;;;;;38.00;22.80;;;;;;;;;;5055301;28;20470;-65
2022/04/22 01:00:25;;;;;;;39.23;23.60;;;;;;;;;;5055156;28;20408;-64
2022/04/22 01:02:51;;;;;;;40.67;24.50;;;;;;;;;;5055369;28;20418;-66
2022/04/22 01:10:47;;;;;;;37.57;23.10;;;;;;;;;;5054988;28;20402;-66
2022/04/22 01:13:13;;;;;;;42.60;24.30;;;;;;;;;;5054820;28;20807;-66
2022/04/22 01:15:39;;;;;;;40.67;24.00;;;;;;;;;;5054807;28;20472;-65
2022/04/22 01:18:05;;;;;;;38.77;23.40;;;;;;;;;;5054893;28;20423;-67
2022/04/22 01:20:31;;;;;;;39.40;22.93;;;;;;;;;;5054840;28;20464;-63
2022/04/22 01:22:58;;;;;;;37.00;22.53;;;;;;;;;;5054722;28;20779;-63
2022/04/22 01:25:24;;;;;;;39.97;23.77;;;;;;;;;;5054952;28;20429;-66
2022/04/22 01:27:50;;;;;;;38.13;23.50;;;;;;;;;;5054811;28;20418;-67
2022/04/22 01:30:20;;;;;;;38.63;22.93;;;;;;;;;;5054700;28;20407;-68
2022/04/22 01:32:47;;;;;;;40.07;23.37;;;;;;;;;;5054633;28;20761;-67
2022/04/22 01:35:13;;;;;;;39.73;23.40;;;;;;;;;;5036957;28;20427;-62
2022/04/22 01:37:39;;;;;;;39.77;23.80;;;;;;;;;;5054612;28;21066;-62
2022/04/22 01:40:05;;;;;;;36.57;23.33;;;;;;;;;;5054563;28;20415;-56
2022/04/22 01:42:31;;;;;;;39.17;23.37;;;;;;;;;;5054517;28;20741;-63
2022/04/22 01:45:00;;;;;;;37.80;22.87;;;;;;;;;;5054522;28;20403;-66
2022/04/22 01:47:26;;;;;;;36.37;22.30;;;;;;;;;;5054655;28;20400;-67
2022/04/22 01:49:52;;;;;;;36.70;23.53;;;;;;;;;;5054590;28;20458;-64
2022/04/22 01:52:19;;;;;;;36.20;21.80;;;;;;;;;;5054351;28;20755;-61
2022/04/22 01:54:51;;;;;;;34.73;21.80;;;;;;;;;;5052917;28;20419;-62
2022/04/22 01:57:17;;;;;;;41.43;24.80;;;;;;;;;;5054100;28;20848;-52
2022/04/22 01:59:44;;;;;;;37.40;22.57;;;;;;;;;;5053402;28;20962;-57
2022/04/22 02:02:10;;;;;;;36.80;23.00;;;;;;;;;;5054237;28;20764;-52
2022/04/22 02:04:36;;;;;;;39.90;23.97;;;;;;;;;;5054247;28;20399;-52
2022/04/22 02:07:05;;;;;;;41.10;23.70;;;;;;;;;;5053766;28;20506;-56
2022/04/22 02:09:34;;;;;;;37.10;23.53;;;;;;;;;;5052712;28;20396;-56
2022/04/22 02:12:04;;;;;;;35.53;22.33;;;;;;;;;;5053851;28;20408;-61
2022/04/22 02:14:33;;;;;;;42.80;23.30;;;;;;;;;;5054229;28;20395;-59
2022/04/22 02:17:00;;;;;;;39.57;23.97;;;;;;;;;;5052424;28;20873;-57
2022/04/22 02:19:26;;;;;;;41.40;23.97;;;;;;;;;;5053626;28;20934;-59
2022/04/22 02:21:52;;;;;;;40.30;24.83;;;;;;;;;;5053674;28;20523;-58
2022/04/22 02:24:18;;;;;;;42.10;24.63;;;;;;;;;;5053646;28;20477;-54
2022/04/22 02:29:29;;;;;;;46.33;22.73;;;;;;;;;;5053830;28;20399;-59
2022/04/22 02:31:55;;;;;;;37.63;23.10;;;;;;;;;;5053374;28;20408;-56
2022/04/22 02:34:22;;;;;;;50.07;25.03;;;;;;;;;;5053607;28;20399;-56
2022/04/22 02:36:48;;;;;;;38.10;22.63;;;;;;;;;;5053376;28;20498;-62
2022/04/22 02:39:15;;;;;;;40.07;23.83;;;;;;;;;;5053243;28;20456;-55
2022/04/22 02:47:10;;;;;;;42.30;24.37;;;;;;;;;;5053389;28;20450;-61
2022/04/22 02:49:36;;;;;;;42.93;26.13;;;;;;;;;;5053157;28;20404;-60
2022/04/22 02:52:02;;;;;;;41.30;24.43;;;;;;;;;;5053155;28;20793;-52
2022/04/22 02:54:31;;;;;;;39.77;24.10;;;;;;;;;;5053174;28;20499;-55
2022/04/22 02:56:58;;;;;;;44.60;25.07;;;;;;;;;;5053087;28;20471;-57
2022/04/22 02:59:24;;;;;;;41.27;25.00;;;;;;;;;;5053084;28;20408;-57
2022/04/22 03:01:51;;;;;;;40.47;24.87;;;;;;;;;;5051848;28;20785;-60
2022/04/22 03:04:17;;;;;;;44.40;25.83;;;;;;;;;;5052987;28;20515;-65
2022/04/22 03:06:43;;;;;;;39.67;24.17;;;;;;;;;;5052867;28;20415;-58
2022/04/22 03:09:09;;;;;;;39.40;23.90;;;;;;;;;;5051647;28;20447;-53
2022/04/22 03:11:35;;;;;;;48.10;25.30;;;;;;;;;;5051534;28;20416;-64
2022/04/22 03:14:03;;;;;;;44.23;25.20;;;;;;;;;;5052809;28;20412;-59
2022/04/22 03:16:29;;;;;;;43.63;26.00;;;;;;;;;;5052565;28;20477;-61
2022/04/22 03:18:59;;;;;;;43.27;25.87;;;;;;;;;;5050621;28;20423;-54
2022/04/22 03:21:26;;;;;;;42.73;24.47;;;;;;;;;;5051070;28;20481;-60
2022/04/22 03:23:52;;;;;;;44.50;26.60;;;;;;;;;;5052723;28;20396;-61
2022/04/22 03:26:18;;;;;;;40.67;24.10;;;;;;;;;;5052480;28;20408;-56
2022/04/22 03:28:44;;;;;;;40.13;25.47;;;;;;;;;;5051578;28;20841;-57
2022/04/22 03:31:10;;;;;;;39.83;23.83;;;;;;;;;;5052409;28;20444;-59
2022/04/22 03:33:37;;;;;;;42.30;25.40;;;;;;;;;;5052384;28;20768;-61
2022/04/22 03:36:05;;;;;;;43.17;25.73;;;;;;;;;;5052411;28;20849;-65
2022/04/22 03:38:31;;;;;;;45.37;26.23;;;;;;;;;;5052491;28;20923;-55
2022/04/22 03:40:57;;;;;;;46.43;25.60;;;;;;;;;;5052301;28;20414;-58
2022/04/22 03:43:25;;;;;;;42.80;26.17;;;;;;;;;;5051485;28;20420;-54
2022/04/22 03:45:51;;;;;;;40.40;25.00;;;;;;;;;;5052592;28;20442;-54
2022/04/22 03:48:17;;;;;;;48.60;26.23;;;;;;;;;;5052279;28;20411;-54
2022/04/22 03:50:43;;;;;;;46.03;26.70;;;;;;;;;;5052280;28;20923;-52
2022/04/22 03:53:11;;;;;;;44.70;26.30;;;;;;;;;;5051037;28;20558;-52
2022/04/22 03:55:38;;;;;;;43.00;25.40;;;;;;;;;;5052337;28;20427;-53
2022/04/22 03:58:11;;;;;;;47.27;26.63;;;;;;;;;;5052252;28;20471;-52
2022/04/22 04:00:40;;;;;;;48.60;26.37;;;;;;;;;;5052285;28;20927;-56
2022/04/22 04:03:06;;;;;;;46.40;26.23;;;;;;;;;;5052467;28;20491;-54
2022/04/22 04:05:33;;;;;;;46.30;26.57;;;;;;;;;;5052248;28;20413;-55
2022/04/22 04:07:59;;;;;;;45.33;26.63;;;;;;;;;;5052208;28;20911;-56
2022/04/22 04:16:03;;;;;;;43.33;26.63;;;;;;;;;;5051947;28;20465;-51
2022/04/22 04:18:30;;;;;;;46.37;26.47;;;;;;;;;;5052061;28;20409;-55
2022/04/22 04:23:42;;;;;;;42.80;26.17;;;;;;;;;;5052328;28;20399;-56
2022/04/22 04:26:08;;;;;;;43.20;26.43;;;;;;;;;;5051899;28;20439;-57
2022/04/22 04:28:37;;;;;;;47.33;26.60;;;;;;;;;;5052472;28;21240;-58
2022/04/22 04:31:11;;;;;;;46.40;26.10;;;;;;;;;;5055809;28;20473;-55
2022/04/22 04:33:37;;;;;;;43.17;26.37;;;;;;;;;;5055590;28;20911;-58
2022/04/22 04:36:04;;;;;;;47.57;27.23;;;;;;;;;;5055621;28;20417;-56
2022/04/22 04:38:31;;;;;;;46.77;26.93;;;;;;;;;;5055440;28;20415;-52
2022/04/22 04:40:57;;;;;;;46.13;26.30;;;;;;;;;;5054116;28;20804;-53
2022/04/22 04:43:23;;;;;;;41.60;25.93;;;;;;;;;;5055661;28;20495;-53
2022/04/22 04:45:50;;;;;;;45.07;27.30;;;;;;;;;;5055643;28;20912;-51
2022/04/22 04:48:16;;;;;;;42.73;25.00;;;;;;;;;;5054113;28;20506;-54
2022/04/22 04:50:43;;;;;;;44.53;26.70;;;;;;;;;;5053896;28;20458;-53
2022/04/22 04:53:09;;;;;;;47.90;26.87;;;;;;;;;;5055391;28;20419;-50
2022/04/22 04:55:36;;;;;;;47.33;27.27;;;;;;;;;;5055060;28;20415;-53
2022/04/22 04:58:02;;;;;;;47.23;26.73;;;;;;;;;;5055048;28;20517;-53
2022/04/22 05:00:28;;;;;;;54.10;26.40;;;;;;;;;;5055109;28;20908;-54
2022/04/22 05:02:55;;;;;;;49.40;27.00;;;;;;;;;;5053803;28;20420;-52
2022/04/22 05:05:21;;;;;;;46.87;26.90;;;;;;;;;;5054356;28;20762;-53
2022/04/22 05:07:48;;;;;;;48.03;26.07;;;;;;;;;;5053810;28;20428;-57
2022/04/22 05:10:14;;;;;;;46.27;26.50;;;;;;;;;;5053477;28;20416;-57
2022/04/22 05:12:43;;;;;;;48.30;27.33;;;;;;;;;;5054780;28;20404;-56
2022/04/22 05:15:10;;;;;;;48.20;28.40;;;;;;;;;;5054869;28;20435;-52
2022/04/22 05:17:36;;;;;;;46.43;27.80;;;;;;;;;;5054851;28;20911;-56
2022/04/22 05:20:03;;;;;;;44.77;25.97;;;;;;;;;;5053273;28;20467;-53
2022/04/22 05:22:29;;;;;;;46.00;26.30;;;;;;;;;;5054647;28;20416;-58
2022/04/22 05:24:55;;;;;;;45.33;26.50;;;;;;;;;;5054539;28;20502;-58
2022/04/22 05:27:21;;;;;;;44.50;27.27;;;;;;;;;;5054761;28;20474;-61
2022/04/22 05:32:38;;;;;;;40.67;25.53;;;;;;;;;;5054470;28;20414;-53
2022/04/22 05:35:08;;;;;;;47.13;27.10;;;;;;;;;;5053128;28;20515;-59
2022/04/22 05:37:46;;;;;;;44.20;27.50;;;;;;;;;;5054421;28;20467;-56
2022/04/22 05:40:13;;;;;;;44.50;27.30;;;;;;;;;;5052311;28;20411;-53
2022/04/22 05:42:39;;;;;;;46.43;26.07;;;;;;;;;;5053078;28;20418;-52
2022/04/22 05:45:09;;;;;;;46.87;27.23;;;;;;;;;;5052828;28;20528;-51
2022/04/22 05:47:36;;;;;;;43.83;27.50;;;;;;;;;;5054111;28;20435;-51
2022/04/22 05:50:02;;;;;;;48.23;27.40;;;;;;;;;;5053958;28;20465;-56
2022/04/22 05:52:28;;;;;;;45.67;26.90;;;;;;;;;;5054100;28;20407;-55
2022/04/22 05:54:56;;;;;;;43.27;27.60;;;;;;;;;;5053672;28;20423;-51
2022/04/22 05:57:22;;;;;;;48.93;28.47;;;;;;;;;;5054001;28;20471;-58
2022/04/22 05:59:49;;;;;;;52.23;29.37;;;;;;;;;;5053923;28;20415;-55
2022/04/22 06:02:17;;;;;;;44.50;27.80;;;;;;;;;;5053852;28;20903;-57
2022/04/22 06:04:43;;;;;;;50.63;29.87;;;;;;;;;;5053774;28;20791;-60
2022/04/22 06:07:09;;;;;;;46.80;28.63;;;;;;;;;;5053962;28;20423;-57
2022/04/22 06:12:21;;;;;;;47.10;28.63;;;;;;;;;;5054146;28;20737;-58
2022/04/22 06:14:47;;;;;;;46.27;28.13;;;;;;;;;;5052417;28;20568;-57
2022/04/22 06:17:13;;;;;;;46.00;29.43;;;;;;;;;;5052246;28;20562;-59
2022/04/22 06:19:39;;;;;;;45.87;29.23;;;;;;;;;;5053324;28;20404;-54
2022/04/22 06:22:05;;;;;;;51.20;29.60;;;;;;;;;;5053341;28;20497;-58
2022/04/22 06:24:31;;;;;;;48.40;30.33;;;;;;;;;;5053392;28;20934;-54
2022/04/22 06:26:57;;;;;;;49.00;30.10;;;;;;;;;;5053313;28;20908;-52
2022/04/22 06:29:23;;;;;;;49.77;30.07;;;;;;;;;;5053502;28;20446;-57
2022/04/22 06:31:49;;;;;;;53.70;30.37;;;;;;;;;;5052226;28;20478;-54
2022/04/22 06:34:15;;;;;;;48.80;30.17;;;;;;;;;;5053213;28;20426;-55
2022/04/22 06:36:42;;;;;;;48.60;30.43;;;;;;;;;;5053085;28;20542;-55
2022/04/22 06:39:08;;;;;;;51.23;31.70;;;;;;;;;;5053475;28;20505;-56
2022/04/22 06:47:04;;;;;;;47.03;30.00;;;;;;;;;;5048593;28;20502;-57
2022/04/22 06:49:31;;;;;;;51.77;31.70;;;;;;;;;;5051004;28;20425;-57
2022/04/22 06:51:57;;;;;;;46.17;30.47;;;;;;;;;;5051218;28;20407;-56
2022/04/22 06:54:23;;;;;;;48.67;31.87;;;;;;;;;;5045783;28;20570;-55
2022/04/22 06:56:49;;;;;;;54.20;32.93;;;;;;;;;;5050715;28;20482;-56
2022/04/22 06:59:19;;;;;;;52.23;30.50;;;;;;;;;;5062888;28;20778;-52
2022/04/22 07:01:46;;;;;;;48.20;30.03;;;;;;;;;;5051415;28;20403;-54
2022/04/22 07:04:12;;;;;;;54.03;31.97;;;;;;;;;;5051894;28;20404;-54
2022/04/22 07:06:38;;;;;;;50.00;30.73;;;;;;;;;;5057564;28;20406;-57
2022/04/22 07:09:05;;;;;;;48.03;29.47;;;;;;;;;;5071947;28;20398;-53
2022/04/22 07:11:31;;;;;;;53.27;30.67;;;;;;;;;;5061498;28;20494;-57
2022/04/22 07:13:58;;;;;;;49.57;30.23;;;;;;;;;;5033052;28;20822;-54
2022/04/22 07:16:24;;;;;;;52.00;31.73;;;;;;;;;;5032098;28;20456;-55
2022/04/22 07:18:51;;;;;;;46.07;30.13;;;;;;;;;;5032060;28;20467;-59
2022/04/22 07:21:18;;;;;;;46.60;30.30;;;;;;;;;;5031101;28;20448;-64
2022/04/22 07:23:44;;;;;;;47.33;29.57;;;;;;;;;;5046552;28;20475;-60
2022/04/22 07:26:11;;;;;;;46.50;30.43;;;;;;;;;;5036948;28;20424;-62
2022/04/22 07:28:38;;;;;;;47.07;29.70;;;;;;;;;;5047300;28;20416;-59
2022/04/22 07:31:04;;;;;;;45.80;29.10;;;;;;;;;;5051330;28;20404;-54
2022/04/22 07:33:31;;;;;;;45.07;29.10;;;;;;;;;;5051508;28;20427;-57
2022/04/22 07:35:57;;;;;;;43.93;29.70;;;;;;;;;;5051593;28;20412;-62
2022/04/22 07:38:24;;;;;;;45.07;29.93;;;;;;;;;;5046887;28;20976;-62
2022/04/22 07:40:50;;;;;;;47.83;29.03;;;;;;;;;;5031660;28;20400;-52
2022/04/22 07:48:52;;;;;;;47.03;30.07;;;;;;;;;;5051674;28;20410;-60
2022/04/22 07:51:24;;;;;;;44.67;29.07;;;;;;;;;;5050921;28;20419;-65
2022/04/22 07:53:50;;;;;;;43.67;27.73;;;;;;;;;;5050045;28;20760;-67
2022/04/22 07:56:16;;;;;;;41.80;28.07;;;;;;;;;;5051164;28;20450;-60
2022/04/22 07:58:42;;;;;;;41.77;26.57;;;;;;;;;;5051417;28;20430;-65
2022/04/22 08:01:08;;;;;;;42.97;28.10;;;;;;;;;;5049700;28;20423;-63
2022/04/22 08:03:36;;;;;;;41.67;27.67;;;;;;;;;;5051688;28;20864;-63
2022/04/22 08:06:02;;;;;;;37.03;26.07;;;;;;;;;;5055451;28;20426;-71
2022/04/22 08:08:30;;;;;;;39.07;25.90;;;;;;;;;;5054037;28;20473;-64
2022/04/22 08:10:56;;;;;;;42.10;26.07;;;;;;;;;;5054851;28;20422;-61
2022/04/22 08:13:24;;;;;;;44.07;24.77;;;;;;;;;;5055014;28;20472;-58
2022/04/22 08:15:50;;;;;;;41.93;25.50;;;;;;;;;;5054051;28;20419;-62
2022/04/22 08:18:16;;;;;;;38.80;25.23;;;;;;;;;;5055129;28;20561;-62
2022/04/22 08:20:42;;;;;;;36.93;25.97;;;;;;;;;;5052268;28;20550;-67
2022/04/22 08:23:08;;;;;;;39.73;26.30;;;;;;;;;;5054963;28;20411;-63
2022/04/22 08:25:34;;;;;;;38.57;25.60;;;;;;;;;;5053794;28;20440;-64
2022/04/22 08:28:03;;;;;;;36.80;24.60;;;;;;;;;;5055078;28;20408;-61
2022/04/22 08:30:29;;;;;;;37.40;24.30;;;;;;;;;;5055225;28;20430;-58
2022/04/22 08:32:55;;;;;;;33.60;23.63;;;;;;;;;;5054338;28;20490;-65
2022/04/22 08:35:22;;;;;;;33.23;23.47;;;;;;;;;;5053380;28;20415;-64
2022/04/22 08:37:48;;;;;;;35.37;23.80;;;;;;;;;;5054739;28;20494;-51
2022/04/22 08:40:17;;;;;;;31.60;23.07;;;;;;;;;;5035506;28;20909;-56
2022/04/22 08:42:47;;;;;;;41.30;22.90;;;;;;;;;;5035060;28;20480;-53
2022/04/22 08:45:13;;;;;;;29.87;21.93;;;;;;;;;;5033962;28;20435;-57
2022/04/22 08:50:30;;;;;;;30.40;22.30;;;;;;;;;;5054721;28;20410;-54
2022/04/22 08:52:57;;;;;;;32.60;22.70;;;;;;;;;;5054046;28;20476;-53
2022/04/22 08:55:25;;;;;;;31.60;21.83;;;;;;;;;;5054505;28;20814;-54
2022/04/22 08:57:51;;;;;;;35.60;21.20;;;;;;;;;;5053497;28;20482;-56
2022/04/22 09:00:24;;;;;;;27.43;21.40;;;;;;;;;;5054524;28;20408;-56
2022/04/22 09:02:51;;;;;;;29.73;20.53;;;;;;;;;;5054264;28;20502;-58
2022/04/22 09:05:17;;;;;;;32.17;21.70;;;;;;;;;;5054232;28;20412;-57
2022/04/22 09:07:43;;;;;;;35.13;22.60;;;;;;;;;;5054519;28;20416;-53
2022/04/22 09:10:11;;;;;;;29.27;22.60;;;;;;;;;;5054105;28;20411;-54
2022/04/22 09:12:37;;;;;;;30.00;22.20;;;;;;;;;;5052460;28;20427;-53
2022/04/22 09:15:03;;;;;;;30.90;22.57;;;;;;;;;;5051312;28;20407;-53
2022/04/22 09:17:30;;;;;;;28.37;20.87;;;;;;;;;;5053645;28;20462;-54
2022/04/22 09:20:01;;;;;;;26.93;20.50;;;;;;;;;;5052118;28;20816;-57
2022/04/22 09:22:28;;;;;;;25.80;19.80;;;;;;;;;;5052592;28;20420;-58
2022/04/22 09:24:55;;;;;;;30.33;21.60;;;;;;;;;;5053635;28;20465;-53
2022/04/22 09:27:32;;;;;;;29.20;19.97;;;;;;;;;;5052452;28;20924;-63
2022/04/22 09:29:58;;;;;;;30.23;19.90;;;;;;;;;;5053713;28;20411;-56
2022/04/22 09:32:25;;;;;;;29.57;19.50;;;;;;;;;;5053551;28;20485;-53
2022/04/22 09:34:52;;;;;;;20.93;18.13;;;;;;;;;;5053576;28;20439;-54
2022/04/22 09:42:53;;;;;;;23.63;19.03;;;;;;;;;;5033564;28;20412;-61
2022/04/22 09:45:19;;;;;;;26.40;19.40;;;;;;;;;;5047839;28;20900;-56
2022/04/22 09:47:56;;;;;;;23.67;18.87;;;;;;;;;;5053635;28;20412;-59
2022/04/22 09:50:38;;;;;;;22.77;18.30;;;;;;;;;;5053435;28;20406;-56
2022/04/22 09:53:04;;;;;;;22.53;18.33;;;;;;;;;;5052028;28;20420;-56
2022/04/22 09:55:31;;;;;;;23.93;18.37;;;;;;;;;;5053232;28;20404;-53
2022/04/22 09:57:58;;;;;;;22.93;18.17;;;;;;;;;;5053136;28;20474;-52
2022/04/22 10:00:28;;;;;;;23.30;18.00;;;;;;;;;;5053269;28;20406;-56
2022/04/22 10:02:57;;;;;;;23.30;18.37;;;;;;;;;;5051309;28;20450;-56
2022/04/22 10:05:24;;;;;;;22.67;18.17;;;;;;;;;;5051729;28;20412;-55
2022/04/22 10:08:02;;;;;;;25.03;18.57;;;;;;;;;;5053201;28;20396;-58
2022/04/22 10:10:30;;;;;;;23.90;19.43;;;;;;;;;;5052894;28;20404;-57
2022/04/22 10:12:57;;;;;;;25.37;17.77;;;;;;;;;;5052639;28;20927;-58
2022/04/22 10:15:26;;;;;;;23.27;16.83;;;;;;;;;;5052741;28;20916;-54
2022/04/22 10:17:52;;;;;;;20.87;17.13;;;;;;;;;;5052995;28;20513;-54
2022/04/22 10:20:20;;;;;;;19.27;17.17;;;;;;;;;;5052670;28;20447;-53
2022/04/22 10:22:48;;;;;;;22.97;17.00;;;;;;;;;;5052321;28;20473;-55
2022/04/22 10:25:15;;;;;;;20.83;16.20;;;;;;;;;;5052421;28;20947;-56
2022/04/22 10:27:42;;;;;;;22.33;15.63;;;;;;;;;;5052523;28;20904;-52
2022/04/22 10:30:10;;;;;;;19.00;15.20;;;;;;;;;;5052669;28;20542;-59
2022/04/22 10:32:39;;;;;;;19.00;15.67;;;;;;;;;;5052345;28;20811;-52
2022/04/22 10:35:05;;;;;;;22.93;15.30;;;;;;;;;;5052261;28;20943;-63
2022/04/22 10:37:33;;;;;;;16.73;14.77;;;;;;;;;;5052484;28;20467;-54
2022/04/22 10:39:59;;;;;;;24.47;14.50;;;;;;;;;;5047894;28;20961;-53
2022/04/22 10:42:33;;;;;;;16.40;14.30;;;;;;;;;;5032135;28;20448;-55
2022/04/22 10:47:48;;;;;;;17.63;14.50;;;;;;;;;;5032778;28;20412;-56
2022/04/22 10:50:27;;;;;;;17.50;14.27;;;;;;;;;;5032359;28;20892;-59
2022/04/22 10:53:03;;;;;;;17.60;14.20;;;;;;;;;;5049332;28;20569;-61
2022/04/22 10:55:38;;;;;;;21.13;14.23;;;;;;;;;;5052117;28;20415;-56
2022/04/22 10:58:13;;;;;;;16.23;13.80;;;;;;;;;;5052180;28;20987;-55
2022/04/22 11:00:49;;;;;;;18.20;14.70;;;;;;;;;;5051848;28;20426;-63
2022/04/22 11:03:16;;;;;;;20.27;15.20;;;;;;;;;;5052080;28;20883;-53
2022/04/22 11:05:46;;;;;;;21.20;16.97;;;;;;;;;;5050873;28;20827;-59
2022/04/22 11:08:20;;;;;;;21.57;17.90;;;;;;;;;;5052141;28;20439;-53
2022/04/22 11:10:46;;;;;;;23.97;18.40;;;;;;;;;;5051477;28;20415;-53
2022/04/22 11:13:29;;;;;;;21.27;17.30;;;;;;;;;;5051985;28;20915;-51
2022/04/22 11:16:18;;;;;;;24.80;18.00;;;;;;;;;;5051785;28;20176;-55
2022/04/22 11:18:44;;;;;;;24.90;19.50;;;;;;;;;;5044149;28;20997;-52
2022/04/22 11:21:13;;;;;;;21.43;18.57;;;;;;;;;;5051364;28;20959;-54
2022/04/22 11:23:41;;;;;;;23.90;18.13;;;;;;;;;;5051809;28;20884;-55
2022/04/22 11:26:07;;;;;;;27.43;20.60;;;;;;;;;;5051483;28;20415;-54
2022/04/22 11:28:37;;;;;;;20.77;17.30;;;;;;;;;;5051717;28;20450;-55
2022/04/22 11:31:07;;;;;;;20.60;17.33;;;;;;;;;;5051397;28;20439;-59
2022/04/22 11:33:53;;;;;;;24.10;18.97;;;;;;;;;;5051911;28;20414;-68
2022/04/22 11:36:19;;;;;;;28.27;19.67;;;;;;;;;;5051606;28;20560;-55
2022/04/22 11:38:47;;;;;;;22.00;18.83;;;;;;;;;;5043458;28;20442;-59
2022/04/22 11:41:13;;;;;;;25.40;20.53;;;;;;;;;;5031313;28;20408;-59
2022/04/22 11:43:43;;;;;;;25.00;19.90;;;;;;;;;;5039416;28;20430;-56
2022/04/22 11:46:13;;;;;;;25.50;19.50;;;;;;;;;;5051827;28;20799;-54
2022/04/22 11:49:05;;;;;;;25.70;20.87;;;;;;;;;;5051488;28;20764;-62
2022/04/22 11:51:36;;;;;;;31.27;21.20;;;;;;;;;;5047635;28;20825;-56
2022/04/22 11:54:03;;;;;;;25.77;21.00;;;;;;;;;;5050193;28;20489;-60
2022/04/22 11:56:29;;;;;;;27.27;21.13;;;;;;;;;;5051154;28;20455;-56
2022/04/22 11:58:56;;;;;;;26.80;21.13;;;;;;;;;;5051259;28;20454;-62
2022/04/22 12:06:56;;;;;;;27.33;20.70;;;;;;;;;;5050992;28;20395;-56
2022/04/22 12:09:22;;;;;;;22.23;19.07;;;;;;;;;;5051321;28;20425;-61
2022/04/22 12:11:50;;;;;;;28.73;19.90;;;;;;;;;;5050882;28;20407;-56
2022/04/22 12:14:28;;;;;;;25.67;21.13;;;;;;;;;;5051238;28;20908;-57
2022/04/22 12:16:55;;;;;;;23.50;20.17;;;;;;;;;;5050659;28;20475;-60
2022/04/22 12:19:21;;;;;;;26.90;19.00;;;;;;;;;;5051328;28;20419;-59
2022/04/22 12:21:47;;;;;;;24.33;20.07;;;;;;;;;;5050701;28;20451;-59
2022/04/22 12:24:19;;;;;;;22.30;19.03;;;;;;;;;;5051328;28;21041;-62
2022/04/22 12:26:45;;;;;;;26.70;20.00;;;;;;;;;;5049588;28;20427;-61
2022/04/22 12:29:16;;;;;;;24.90;20.83;;;;;;;;;;5051195;28;20451;-61
2022/04/22 12:31:43;;;;;;;29.50;20.67;;;;;;;;;;5050879;28;20912;-63
2022/04/22 12:34:13;;;;;;;22.13;18.50;;;;;;;;;;5050912;28;20458;-58
2022/04/22 12:36:53;;;;;;;20.67;18.40;;;;;;;;;;5050949;28;20479;-65
2022/04/22 12:39:38;;;;;;;21.27;18.37;;;;;;;;;;5038691;28;20888;-66
2022/04/22 12:42:26;;;;;;;20.00;17.57;;;;;;;;;;5030662;28;21132;-60
2022/04/22 12:53:37;;;;;;;19.83;17.63;;;;;;;;;;5054495;28;20418;-57
2022/04/22 12:56:04;;;;;;;18.27;16.40;;;;;;;;;;5054505;28;20435;-52
2022/04/22 12:58:32;;;;;;;19.00;16.13;;;;;;;;;;5054164;28;20498;-57
2022/04/22 13:00:59;;;;;;;22.23;17.57;;;;;;;;;;5053833;28;20404;-55
2022/04/22 13:03:38;;;;;;;22.00;15.93;;;;;;;;;;5054382;28;20493;-57
2022/04/22 13:06:05;;;;;;;17.60;15.70;;;;;;;;;;5053037;28;20920;-58
2022/04/22 13:08:31;;;;;;;17.00;15.20;;;;;;;;;;5052971;28;20428;-60
2022/04/22 13:10:59;;;;;;;16.83;14.97;;;;;;;;;;5053903;28;20947;-65
2022/04/22 13:13:27;;;;;;;17.30;14.43;;;;;;;;;;5053961;28;20419;-59
2022/04/22 13:15:53;;;;;;;19.63;15.60;;;;;;;;;;5054313;28;20495;-53
2022/04/22 13:18:20;;;;;;;15.80;14.17;;;;;;;;;;5053908;28;20525;-60
2022/04/22 13:20:46;;;;;;;17.87;14.03;;;;;;;;;;5053484;28;20905;-56
2022/04/22 13:23:12;;;;;;;14.80;13.27;;;;;;;;;;5053991;28;20481;-57
2022/04/22 13:25:38;;;;;;;19.63;14.63;;;;;;;;;;5053962;28;20447;-59
2022/04/22 13:28:04;;;;;;;17.83;12.67;;;;;;;;;;5052418;28;20456;-54
2022/04/22 13:30:30;;;;;;;15.80;13.70;;;;;;;;;;5054113;28;20173;-54
2022/04/22 13:32:56;;;;;;;18.30;14.57;;;;;;;;;;5053665;28;20407;-55
2022/04/22 13:35:23;;;;;;;19.87;16.00;;;;;;;;;;5054071;28;20400;-60
2022/04/22 13:37:49;;;;;;;17.23;13.97;;;;;;;;;;5053671;28;20463;-57
2022/04/22 13:40:16;;;;;;;21.17;16.30;;;;;;;;;;5033790;28;20408;-53
2022/04/22 13:42:42;;;;;;;20.97;15.30;;;;;;;;;;5042926;28;20423;-55
2022/04/22 13:53:24;;;;;;;20.77;16.93;;;;;;;;;;5053522;28;20502;-59
2022/04/22 13:55:53;;;;;;;18.03;15.83;;;;;;;;;;5053708;28;20410;-55
2022/04/22 13:58:19;;;;;;;20.50;16.07;;;;;;;;;;5053367;28;20459;-53
2022/04/22 14:00:45;;;;;;;21.20;16.20;;;;;;;;;;5052767;28;20916;-54
2022/04/22 14:03:11;;;;;;;21.43;16.80;;;;;;;;;;5051410;28;20500;-55
2022/04/22 14:05:37;;;;;;;19.37;16.83;;;;;;;;;;5053268;28;20904;-57
2022/04/22 14:08:03;;;;;;;18.87;16.10;;;;;;;;;;5053066;28;20814;-54
2022/04/22 14:10:30;;;;;;;21.97;18.10;;;;;;;;;;5053153;28;20411;-55
2022/04/22 14:13:00;;;;;;;21.10;17.57;;;;;;;;;;5052704;28;20407;-63
2022/04/22 14:15:26;;;;;;;28.03;17.47;;;;;;;;;;5052945;28;20411;-58
2022/04/22 14:17:52;;;;;;;20.63;16.93;;;;;;;;;;5052668;28;20528;-54
2022/04/22 14:20:18;;;;;;;27.43;17.23;;;;;;;;;;5052571;28;20538;-63
2022/04/22 14:22:44;;;;;;;24.07;17.57;;;;;;;;;;5052622;28;20466;-55
2022/04/22 14:25:10;;;;;;;18.03;15.77;;;;;;;;;;5052920;28;20408;-58
2022/04/22 14:27:36;;;;;;;23.30;17.57;;;;;;;;;;5064334;28;20476;-58
2022/04/22 14:30:03;;;;;;;21.60;18.07;;;;;;;;;;5066737;28;20488;-57
2022/04/22 14:32:29;;;;;;;26.70;19.57;;;;;;;;;;5059244;28;20419;-56
2022/04/22 14:34:56;;;;;;;21.97;18.33;;;;;;;;;;5059639;28;20510;-62
2022/04/22 14:37:22;;;;;;;23.10;18.87;;;;;;;;;;5063923;28;20494;-59
2022/04/22 14:39:49;;;;;;;22.40;18.40;;;;;;;;;;5060703;28;20418;-55
2022/04/22 14:42:17;;;;;;;23.00;19.20;;;;;;;;;;5072399;28;20910;-59
2022/04/22 14:44:43;;;;;;;22.80;18.77;;;;;;;;;;5070867;28;20403;-61
2022/04/22 14:47:10;;;;;;;24.30;19.33;;;;;;;;;;5069746;28;20471;-55
2022/04/22 14:49:36;;;;;;;22.77;19.20;;;;;;;;;;5052236;28;20441;-60
2022/04/22 14:52:03;;;;;;;28.43;19.50;;;;;;;;;;5051989;28;20427;-54
2022/04/22 14:54:29;;;;;;;26.90;19.67;;;;;;;;;;5050534;28;20414;-58
2022/04/22 14:56:55;;;;;;;25.17;18.77;;;;;;;;;;5050593;28;20460;-66
2022/04/22 14:59:23;;;;;;;26.83;20.23;;;;;;;;;;5052063;28;20821;-56
2022/04/22 15:01:53;;;;;;;29.50;20.77;;;;;;;;;;5050790;28;20573;-62
2022/04/22 15:04:19;;;;;;;23.87;18.93;;;;;;;;;;5051956;28;20408;-57
2022/04/22 15:06:45;;;;;;;23.07;18.80;;;;;;;;;;5051516;28;20502;-55
2022/04/22 15:09:11;;;;;;;23.30;18.60;;;;;;;;;;5051684;28;20403;-58
2022/04/22 15:11:37;;;;;;;24.73;19.07;;;;;;;;;;5050631;28;20412;-60
2022/04/22 15:14:05;;;;;;;24.67;19.60;;;;;;;;;;5050262;28;20411;-56
2022/04/22 15:16:31;;;;;;;26.10;20.00;;;;;;;;;;5034258;28;20504;-64
2022/04/22 15:24:27;;;;;;;23.20;18.90;;;;;;;;;;5060617;28;20490;-61
2022/04/22 15:26:54;;;;;;;26.90;17.87;;;;;;;;;;5050111;28;20415;-59
2022/04/22 15:29:20;;;;;;;21.60;17.63;;;;;;;;;;5067552;28;20910;-61
2022/04/22 15:31:47;;;;;;;21.60;17.33;;;;;;;;;;5071370;28;20437;-58
2022/04/22 15:34:13;;;;;;;24.40;18.13;;;;;;;;;;5071449;28;20419;-55
2022/04/22 15:36:39;;;;;;;25.97;18.17;;;;;;;;;;5065279;28;20462;-56